Time;durP1;ratioP1;P1;durP2;ratioP2;P2;SDS_P1;SDS_P2;PMS_P1;PMS_P2;Temp;Humidity;BMP_temperature;BMP_pressure;BME280_temperature;BME280_humidity;BME280_pressure;Samples;Min_cycle;Max_cycle;Signal;HPM_P1;HPM_P2
2023/09/23 00:01:20;;;;;;;6.43;4.20;;;;;;;17.08;56.27;100298.97;5079724;28;20044;-39
2023/09/23 00:03:47;;;;;;;8.90;4.53;;;;;;;17.10;56.03;100296.28;5057884;28;20578;-39
2023/09/23 00:06:14;;;;;;;7.55;4.38;;;;;;;17.08;56.22;100296.34;5041825;28;20048;-39
2023/09/23 00:08:41;;;;;;;9.02;4.22;;;;;;;16.89;56.57;100272.81;5081396;28;20040;-40
2023/09/23 00:11:08;;;;;;;10.45;4.40;;;;;;;17.03;56.73;100292.25;5079997;28;20126;-38
2023/09/23 00:13:35;;;;;;;7.97;4.22;;;;;;;17.00;56.74;100295.91;5071734;28;20045;-38
2023/09/23 00:16:09;;;;;;;14.55;5.00;;;;;;;17.00;56.72;100297.69;5077178;28;20055;-39
2023/09/23 00:18:35;;;;;;;11.48;4.90;;;;;;;16.99;56.54;100301.22;5071948;28;20555;-38
2023/09/23 00:21:03;;;;;;;9.70;4.80;;;;;;;16.96;57.29;100299.59;5078459;28;20430;-38
2023/09/23 00:23:29;;;;;;;8.50;4.53;;;;;;;16.93;57.44;100308.50;5081763;28;20044;-38
2023/09/23 00:25:54;;;;;;;9.65;4.70;;;;;;;16.92;57.29;100296.28;5070728;28;20508;-38
2023/09/23 00:28:25;;;;;;;10.05;4.30;;;;;;;16.91;57.40;100296.34;5081018;28;20074;-39
2023/09/23 00:30:53;;;;;;;8.85;4.40;;;;;;;16.90;57.42;100297.31;5061310;28;20139;-38
2023/09/23 00:33:19;;;;;;;9.90;4.75;;;;;;;16.91;56.88;100298.97;5079477;28;20045;-39
2023/09/23 00:35:47;;;;;;;9.63;4.80;;;;;;;16.90;57.13;100298.13;5075958;28;20048;-39
2023/09/23 00:38:13;;;;;;;9.63;4.10;;;;;;;16.88;57.61;100291.28;5076187;28;20512;-38
2023/09/23 00:40:41;;;;;;;10.38;4.35;;;;;;;16.84;57.54;100295.00;5081384;28;20052;-38
2023/09/23 00:43:13;;;;;;;12.52;5.22;;;;;;;16.80;58.08;100285.56;5071895;28;20562;-38
2023/09/23 00:45:45;;;;;;;7.43;4.30;;;;;;;16.75;58.56;100296.28;5052333;28;20040;-39
2023/09/23 00:48:12;;;;;;;8.63;4.47;;;;;;;16.71;58.37;100297.34;5059508;28;20714;-44
2023/09/23 00:50:43;;;;;;;8.05;5.18;;;;;;;16.70;58.00;100297.44;5033857;28;20064;-39
2023/09/23 00:53:09;;;;;;;12.48;4.80;;;;;;;16.70;57.99;100295.66;5075243;28;20052;-39
2023/09/23 00:55:42;;;;;;;10.82;5.20;;;;;;;16.67;58.25;100298.44;5082082;28;20054;-38
2023/09/23 00:58:14;;;;;;;10.65;4.60;;;;;;;16.53;58.83;100285.97;5081318;28;20135;-39
2023/09/23 01:00:43;;;;;;;11.70;4.25;;;;;;;16.65;58.52;100308.16;5077028;28;20040;-39
2023/09/23 01:03:12;;;;;;;9.60;5.03;;;;;;;16.49;58.99;100281.78;5071591;28;20098;-39
2023/09/23 01:05:40;;;;;;;10.73;4.82;;;;;;;16.29;59.02;100249.56;5064279;28;20047;-39
2023/09/23 01:08:07;;;;;;;8.65;4.55;;;;;;;16.57;58.89;100299.78;5081819;28;20432;-39
2023/09/23 01:10:33;;;;;;;16.38;5.22;;;;;;;16.53;59.40;100295.63;5077518;28;20036;-38
2023/09/23 01:13:00;;;;;;;13.70;5.32;;;;;;;16.46;60.01;100292.44;5060209;28;20040;-39
2023/09/23 01:15:28;;;;;;;12.00;4.43;;;;;;;16.41;60.13;100293.59;5080908;28;20066;-38
2023/09/23 01:17:54;;;;;;;18.20;5.30;;;;;;;16.39;59.75;100287.56;5074770;28;20106;-38
2023/09/23 01:20:21;;;;;;;11.40;5.00;;;;;;;16.34;59.79;100282.53;5077671;28;20052;-38
2023/09/23 01:22:47;;;;;;;10.32;4.65;;;;;;;16.41;59.53;100290.97;5074870;28;20047;-39
2023/09/23 01:25:19;;;;;;;10.80;5.55;;;;;;;16.36;59.82;100295.59;5099369;28;20031;-38
2023/09/23 01:27:45;;;;;;;9.95;4.65;;;;;;;16.32;60.40;100292.28;5077280;28;20057;-39
2023/09/23 01:30:12;;;;;;;11.50;4.80;;;;;;;16.31;60.28;100285.31;5077374;28;20040;-39
2023/09/23 01:32:46;;;;;;;12.95;4.75;;;;;;;16.30;60.08;100294.09;5080418;28;20039;-39
2023/09/23 01:35:13;;;;;;;12.82;4.95;;;;;;;16.29;60.55;100296.78;5057873;28;20048;-39
2023/09/23 01:37:39;;;;;;;14.63;4.93;;;;;;;16.25;61.07;100298.72;5080443;28;20143;-39
2023/09/23 01:40:06;;;;;;;12.35;4.72;;;;;;;16.28;60.68;100305.59;5063517;28;20119;-39
2023/09/23 01:42:33;;;;;;;11.23;4.93;;;;;;;16.14;60.10;100282.63;5081198;28;20498;-38
2023/09/23 01:44:59;;;;;;;8.40;5.45;;;;;;;16.24;60.72;100307.50;5082717;28;20032;-38
2023/09/23 01:47:25;;;;;;;13.73;4.57;;;;;;;16.24;60.40;100291.78;5077903;28;20044;-39
2023/09/23 01:49:51;;;;;;;8.80;5.03;;;;;;;16.23;60.40;100300.56;5075665;28;20526;-38
2023/09/23 01:52:17;;;;;;;9.43;4.82;;;;;;;16.22;60.50;100298.03;5077547;28;20050;-38
2023/09/23 01:54:45;;;;;;;10.77;5.15;;;;;;;16.23;60.06;100304.94;5082390;28;20048;-38
2023/09/23 01:57:16;;;;;;;12.80;5.10;;;;;;;16.19;60.92;100304.25;5078105;28;20041;-39
2023/09/23 01:59:46;;;;;;;10.95;4.60;;;;;;;16.18;60.99;100299.06;5079933;28;20043;-39
2023/09/23 02:02:11;;;;;;;;;;;;;;;16.18;60.35;100299.94;5079672;28;20576;-39
2023/09/23 02:04:39;;;;;;;14.82;5.20;;;;;;;16.11;60.76;100303.78;5063987;28;19916;-38
2023/09/23 02:07:10;;;;;;;8.13;4.55;;;;;;;16.07;61.29;100302.19;5079564;28;20056;-39
2023/09/23 02:09:40;;;;;;;12.57;5.10;;;;;;;16.07;60.72;100305.69;5079579;28;20035;-38
2023/09/23 02:12:06;;;;;;;12.93;5.05;;;;;;;15.94;60.90;100275.72;5079762;28;20042;-37
2023/09/23 02:14:33;;;;;;;8.48;4.65;;;;;;;16.05;61.17;100302.31;5069451;28;20036;-37
2023/09/23 02:16:59;;;;;;;7.18;4.78;;;;;;;16.06;60.66;100305.78;5080834;28;20048;-38
2023/09/23 02:19:25;;;;;;;9.88;5.38;;;;;;;16.05;60.79;100302.31;5063711;28;20084;-39
2023/09/23 02:21:52;;;;;;;10.15;4.75;;;;;;;16.03;60.88;100298.03;5081242;28;20130;-39
2023/09/23 02:24:19;;;;;;;9.80;4.63;;;;;;;16.02;60.93;100301.56;5071283;28;20517;-40
2023/09/23 02:26:46;;;;;;;8.60;4.30;;;;;;;15.74;60.29;100260.06;5074865;28;20040;-38
2023/09/23 02:29:14;;;;;;;7.88;4.97;;;;;;;16.02;60.39;100301.56;5076364;28;20040;-38
2023/09/23 02:31:47;;;;;;;8.82;4.82;;;;;;;16.02;60.26;100307.66;5079370;28;20044;-39
2023/09/23 02:34:16;;;;;;;6.90;4.70;;;;;;;16.02;60.10;100304.19;5066295;28;20048;-40
2023/09/23 02:36:46;;;;;;;7.93;4.70;;;;;;;16.02;60.42;100304.19;5079353;28;20071;-38
2023/09/23 02:39:15;;;;;;;8.82;4.50;;;;;;;16.03;59.82;100308.53;5080129;28;20530;-37
2023/09/23 02:41:45;;;;;;;10.93;4.82;;;;;;;16.04;60.07;100311.09;5077143;28;20052;-38
2023/09/23 02:44:22;;;;;;;13.55;5.68;;;;;;;16.05;60.41;100306.69;5057009;28;20569;-39
2023/09/23 02:46:49;;;;;;;11.02;5.75;;;;;;;16.04;60.85;100311.09;5063205;28;20179;-39
2023/09/23 02:49:16;;;;;;;8.68;4.47;;;;;;;15.85;60.91;100267.44;5070100;28;20576;-39
2023/09/23 02:51:44;;;;;;;15.38;7.88;;;;;;;16.09;60.44;100305.63;5060058;28;20036;-38
2023/09/23 02:54:18;;;;;;;10.15;5.53;;;;;;;16.10;60.34;100302.06;5089293;28;20049;-39
2023/09/23 02:56:50;;;;;;;9.93;5.28;;;;;;;16.09;60.45;100311.72;5078896;28;20667;-39
2023/09/23 02:59:21;;;;;;;10.20;5.50;;;;;;;16.03;61.16;100316.41;5052716;28;20102;-38
2023/09/23 03:01:53;;;;;;;12.77;4.68;;;;;;;16.00;60.79;100313.94;5079050;28;20032;-39
2023/09/23 03:04:23;;;;;;;11.63;4.75;;;;;;;15.70;60.54;100278.63;5072668;28;20074;-39
2023/09/23 03:06:54;;;;;;;9.95;4.30;;;;;;;15.99;60.58;100318.31;5056517;28;20056;-38
2023/09/23 03:09:25;;;;;;;12.00;4.88;;;;;;;16.01;60.36;100321.72;5076459;28;20040;-40
2023/09/23 03:11:58;;;;;;;9.20;4.57;;;;;;;15.89;59.93;100295.22;5080118;28;20048;-39
2023/09/23 03:14:42;;;;;;;11.82;5.10;;;;;;;16.01;60.03;100318.25;5074018;28;20103;-39
2023/09/23 03:17:09;;;;;;;8.70;4.85;;;;;;;16.03;60.01;100311.16;5078469;28;20526;-38
2023/09/23 03:19:36;;;;;;;8.98;4.93;;;;;;;16.04;59.81;100315.47;5060156;28;20036;-38
2023/09/23 03:22:02;;;;;;;9.98;4.47;;;;;;;16.03;60.05;100316.41;5079982;28;20476;-39
2023/09/23 03:24:29;;;;;;;9.57;4.60;;;;;;;16.02;60.03;100322.56;5074577;28;20051;-38
2023/09/23 03:27:01;;;;;;;12.38;4.78;;;;;;;16.00;60.04;100321.78;5078790;28;20036;-39
2023/09/23 03:29:29;;;;;;;10.60;4.65;;;;;;;15.97;60.22;100320.16;5076107;28;20044;-39
2023/09/23 03:31:56;;;;;;;14.73;5.88;;;;;;;15.96;60.22;100322.88;5054811;28;20076;-38
2023/09/23 03:34:23;;;;;;;8.93;4.68;;;;;;;15.98;59.90;100318.38;5074078;28;20121;-39
2023/09/23 03:36:53;;;;;;;13.35;5.25;;;;;;;15.98;60.03;100327.09;5052375;28;20043;-38
2023/09/23 03:39:20;;;;;;;13.57;5.43;;;;;;;15.97;60.16;100322.78;5076050;28;20040;-38
2023/09/23 03:41:46;;;;;;;8.30;5.00;;;;;;;15.96;60.21;100333.34;5061566;28;20126;-38
2023/09/23 03:44:16;;;;;;;19.38;5.20;;;;;;;15.97;60.22;100327.16;5071167;28;20037;-38
2023/09/23 03:46:46;;;;;;;8.85;5.28;;;;;;;15.97;60.44;100332.41;5070999;28;20048;-39
2023/09/23 03:49:12;;;;;;;14.73;5.13;;;;;;;15.96;60.70;100334.19;5076293;28;20039;-39
2023/09/23 03:51:39;;;;;;;8.60;4.75;;;;;;;16.00;60.65;100338.38;5072784;28;20474;-39
2023/09/23 03:54:06;;;;;;;13.70;4.97;;;;;;;15.87;60.60;100324.13;5074604;28;20040;-38
2023/09/23 03:56:34;;;;;;;17.05;6.90;;;;;;;16.02;60.72;100336.53;5069127;28;20072;-39
2023/09/23 03:59:05;;;;;;;15.77;4.53;;;;;;;16.05;60.33;100339.03;5038581;28;20065;-39
2023/09/23 04:01:31;;;;;;;;;;;;;;;16.09;60.21;100339.72;5077811;28;20088;-38
2023/09/23 04:03:56;;;;;;;9.85;4.57;;;;;;;16.08;60.36;100343.25;5079663;28;20410;-38
2023/09/23 04:06:22;;;;;;;9.45;4.95;;;;;;;16.10;60.06;100342.28;5053826;28;20055;-37
2023/09/23 04:08:49;;;;;;;13.05;5.40;;;;;;;16.16;59.80;100343.78;5071320;28;20561;-39
2023/09/23 04:11:18;;;;;;;12.38;4.63;;;;;;;16.19;60.12;100342.75;5077239;28;20037;-38
2023/09/23 04:13:47;;;;;;;11.77;4.63;;;;;;;16.22;60.22;100342.63;5057595;28;20379;-38
2023/09/23 04:16:13;;;;;;;10.57;5.10;;;;;;;16.20;60.16;100345.31;5078238;28;20060;-39
2023/09/23 04:18:41;;;;;;;8.27;4.97;;;;;;;16.25;60.10;100350.34;5075936;28;20481;-39
2023/09/23 04:21:08;;;;;;;10.23;4.82;;;;;;;16.10;59.66;100323.06;5068880;28;20072;-39
2023/09/23 04:23:35;;;;;;;9.40;5.07;;;;;;;16.15;59.76;100333.34;5078924;28;20082;-38
2023/09/23 04:26:03;;;;;;;16.92;5.43;;;;;;;16.31;59.61;100352.69;5078396;28;20047;-39
2023/09/23 04:28:30;;;;;;;10.95;5.03;;;;;;;16.34;59.38;100355.16;5076710;28;20047;-39
2023/09/23 04:30:57;;;;;;;12.10;5.28;;;;;;;16.38;59.48;100349.69;5062388;28;20415;-38
2023/09/23 04:33:27;;;;;;;9.25;5.07;;;;;;;16.45;59.44;100347.63;5078313;28;20046;-37
2023/09/23 04:35:58;;;;;;;15.93;5.70;;;;;;;16.49;59.34;100352.66;5080312;28;20126;-39
2023/09/23 04:38:24;;;;;;;10.30;5.18;;;;;;;16.54;59.07;100361.16;5080813;28;20503;-40
2023/09/23 04:40:51;;;;;;;12.90;5.25;;;;;;;16.59;58.90;100366.22;5079419;28;20045;-39
2023/09/23 04:43:18;;;;;;;10.55;4.82;;;;;;;16.66;58.68;100367.63;5080148;28;20124;-38
2023/09/23 04:45:46;;;;;;;8.93;5.00;;;;;;;16.72;58.83;100369.13;5066752;28;20047;-39
2023/09/23 04:48:14;;;;;;;9.20;5.30;;;;;;;16.76;58.39;100358.38;5081120;28;20281;-39
2023/09/23 04:50:41;;;;;;;12.88;6.20;;;;;;;16.84;58.58;100364.13;5057898;28;20289;-39
2023/09/23 04:53:08;;;;;;;12.65;5.68;;;;;;;16.94;58.31;100375.03;5092630;28;20039;-39
2023/09/23 04:55:34;;;;;;;10.07;5.30;;;;;;;17.02;58.02;100370.22;5076137;28;20047;-39
2023/09/23 04:58:00;;;;;;;9.93;5.25;;;;;;;16.81;57.58;100322.22;5074887;28;20047;-39
2023/09/23 05:00:27;;;;;;;9.38;5.20;;;;;;;17.17;57.67;100369.47;5061289;28;20040;-40
2023/09/23 05:02:53;;;;;;;12.85;5.38;;;;;;;17.25;57.30;100369.94;5057434;28;20040;-39
2023/09/23 05:05:20;;;;;;;13.35;4.93;;;;;;;17.33;56.97;100373.00;5077968;28;20040;-39
2023/09/23 05:07:47;;;;;;;11.88;5.22;;;;;;;17.25;56.81;100343.66;5073254;28;20110;-38
2023/09/23 05:10:13;;;;;;;11.25;4.97;;;;;;;17.50;56.50;100369.50;5078895;28;20066;-38
2023/09/23 05:12:40;;;;;;;15.68;5.30;;;;;;;17.59;56.21;100368.19;5082342;28;20399;-40
2023/09/23 05:15:09;;;;;;;10.02;5.55;;;;;;;17.67;55.95;100368.69;5082159;28;20076;-39
2023/09/23 05:17:37;;;;;;;11.05;5.18;;;;;;;17.78;56.07;100375.06;5073175;28;20040;-39
2023/09/23 05:20:15;;;;;;;13.48;5.45;;;;;;;17.78;55.36;100372.44;5077480;28;20135;-40
2023/09/23 05:22:42;;;;;;;15.98;4.88;;;;;;;17.96;55.37;100380.28;5072145;28;20047;-38
2023/09/23 05:25:11;;;;;;;12.45;4.88;;;;;;;18.09;55.14;100374.28;5075140;28;20036;-39
2023/09/23 05:27:42;;;;;;;7.85;4.57;;;;;;;18.23;54.57;100376.16;5070911;28;20075;-39
2023/09/23 05:30:12;;;;;;;10.88;5.07;;;;;;;18.33;54.41;100377.34;5078348;28;20040;-39
2023/09/23 05:32:38;;;;;;;10.55;5.28;;;;;;;18.49;53.85;100386.09;5069606;28;20039;-38
2023/09/23 05:35:10;;;;;;;11.02;5.85;;;;;;;18.63;53.67;100369.56;5076009;28;20040;-39
2023/09/23 05:37:37;;;;;;;8.20;4.93;;;;;;;18.86;53.09;100384.06;5077446;28;20576;-39
2023/09/23 05:40:20;;;;;;;9.10;4.80;;;;;;;19.14;52.44;100383.31;5081869;28;20043;-39
2023/09/23 05:42:47;;;;;;;10.05;5.15;;;;;;;19.63;51.45;100381.25;5071023;28;20087;-40
2023/09/23 05:45:15;;;;;;;12.63;5.30;;;;;;;20.23;50.15;100389.84;5075152;28;20036;-40
2023/09/23 05:47:41;;;;;;;7.88;4.88;;;;;;;20.98;48.92;100384.09;5076860;28;20044;-39
2023/09/23 05:50:09;;;;;;;9.65;4.65;;;;;;;21.79;47.56;100387.38;5078114;28;20048;-39
2023/09/23 05:52:36;;;;;;;13.38;4.63;;;;;;;22.48;46.04;100358.66;5075322;28;20092;-38
2023/09/23 05:55:06;;;;;;;8.20;4.38;;;;;;;23.22;44.17;100385.81;5081399;28;20047;-38
2023/09/23 05:57:38;;;;;;;11.25;4.78;;;;;;;23.52;42.94;100385.31;5060164;28;20048;-39
2023/09/23 06:00:10;;;;;;;9.05;4.30;;;;;;;24.01;41.90;100384.16;5060447;28;20047;-40
2023/09/23 06:02:41;;;;;;;10.45;4.35;;;;;;;24.45;40.57;100375.28;5071672;28;20174;-40
2023/09/23 06:05:07;;;;;;;8.45;4.53;;;;;;;25.05;40.03;100389.91;5079553;28;20067;-39
2023/09/23 06:07:33;;;;;;;10.20;4.22;;;;;;;25.65;38.42;100394.53;5048471;28;20121;-40
2023/09/23 06:09:59;;;;;;;7.72;3.90;;;;;;;25.93;37.52;100387.69;5069791;28;20036;-39
2023/09/23 06:12:30;;;;;;;8.27;4.20;;;;;;;26.51;35.84;100394.09;5093837;28;20454;-41
2023/09/23 06:14:58;;;;;;;8.23;4.18;;;;;;;26.74;35.44;100390.22;5075105;28;20432;-40
2023/09/23 06:17:25;;;;;;;7.97;3.97;;;;;;;27.55;34.57;100386.28;5077655;28;20064;-39
2023/09/23 06:19:51;;;;;;;10.07;4.45;;;;;;;27.76;33.96;100389.59;5065431;28;20040;-39
2023/09/23 06:22:18;;;;;;;9.20;4.60;;;;;;;28.69;32.92;100388.59;5069775;28;20040;-39
2023/09/23 06:24:44;;;;;;;12.68;4.40;;;;;;;29.71;31.80;100400.56;5079569;28;20035;-41
2023/09/23 06:27:10;;;;;;;11.13;4.70;;;;;;;30.72;30.71;100399.69;5080661;28;20040;-38
2023/09/23 06:29:36;;;;;;;8.15;4.80;;;;;;;31.27;29.68;100398.28;5067017;28;20039;-38
2023/09/23 06:32:03;;;;;;;14.05;5.03;;;;;;;31.44;28.92;100399.97;5068086;28;20073;-39
2023/09/23 06:34:29;;;;;;;9.77;5.10;;;;;;;31.53;28.61;100394.41;5075143;28;20143;-39
2023/09/23 06:36:55;;;;;;;15.15;6.13;;;;;;;32.41;28.15;100393.50;5067481;28;20650;-40
2023/09/23 06:39:23;;;;;;;12.55;4.93;;;;;;;32.78;27.12;100391.78;5075000;28;20075;-40
2023/09/23 06:41:50;;;;;;;13.98;4.85;;;;;;;32.78;26.98;100374.78;5068601;28;20051;-40
2023/09/23 06:44:16;;;;;;;9.75;4.88;;;;;;;32.93;26.37;100396.41;5054150;28;20177;-40
2023/09/23 06:46:42;;;;;;;19.17;5.32;;;;;;;32.61;26.77;100394.72;5071307;28;20085;-39
2023/09/23 06:49:08;;;;;;;12.20;4.70;;;;;;;32.25;26.93;100392.56;5054555;28;20444;-40
2023/09/23 06:51:33;;;;;;;11.98;4.72;;;;;;;32.75;26.97;100386.78;5065805;28;20093;-42
2023/09/23 06:53:59;;;;;;;12.27;4.80;;;;;;;33.77;26.06;100392.66;5060774;28;20037;-39
2023/09/23 06:56:25;;;;;;;13.10;4.82;;;;;;;33.59;24.90;100366.03;5067974;28;20614;-39
2023/09/23 06:58:51;;;;;;;9.45;4.38;;;;;;;33.88;24.86;100392.22;5067977;28;20131;-39
2023/09/23 07:01:17;;;;;;;11.18;4.38;;;;;;;34.40;24.23;100390.25;5048201;28;20131;-39
2023/09/23 07:03:43;;;;;;;11.60;4.35;;;;;;;34.91;23.55;100365.91;5068119;28;20508;-40
2023/09/23 07:06:09;;;;;;;18.70;4.90;;;;;;;34.55;23.55;100397.47;5068932;28;20147;-40
2023/09/23 07:08:35;;;;;;;12.73;4.55;;;;;;;34.49;23.40;100395.53;5067078;28;20122;-41
2023/09/23 07:11:01;;;;;;;11.48;5.43;;;;;;;34.12;23.60;100367.66;5078844;28;20067;-41
2023/09/23 07:13:27;;;;;;;7.85;4.68;;;;;;;33.55;24.05;100397.09;5051009;28;20044;-41
2023/09/23 07:15:52;;;;;;;11.50;4.80;;;;;;;32.82;24.46;100388.75;5067225;28;20487;-40
2023/09/23 07:18:18;;;;;;;12.98;4.78;;;;;;;32.38;24.72;100381.25;5063765;28;20543;-40
2023/09/23 07:20:44;;;;;;;12.05;4.75;;;;;;;32.50;24.92;100393.31;5051619;28;20579;-40
2023/09/23 07:23:10;;;;;;;10.43;4.40;;;;;;;32.29;24.91;100385.00;5069339;28;20036;-39
2023/09/23 07:25:40;;;;;;;8.68;4.30;;;;;;;32.62;25.09;100389.16;5076391;28;20067;-39
2023/09/23 07:28:09;;;;;;;12.50;4.28;;;;;;;33.02;24.32;100393.50;5073679;28;20041;-40
2023/09/23 07:30:36;;;;;;;14.85;4.60;;;;;;;33.40;24.04;100396.22;5075285;28;20044;-39
2023/09/23 07:33:02;;;;;;;14.23;4.40;;;;;;;33.44;23.81;100360.63;5075079;28;20048;-38
2023/09/23 07:35:32;;;;;;;10.30;4.40;;;;;;;34.55;22.76;100390.19;5060052;28;20051;-38
2023/09/23 07:38:02;;;;;;;11.18;4.80;;;;;;;34.53;22.80;100392.28;5058052;28;20039;-39
2023/09/23 07:40:29;;;;;;;12.27;4.30;;;;;;;34.44;22.62;100387.97;5092121;28;20474;-39
2023/09/23 07:42:55;;;;;;;8.95;4.30;;;;;;;34.31;22.69;100390.53;5079687;28;20063;-39
2023/09/23 07:45:21;;;;;;;10.88;4.47;;;;;;;33.98;23.00;100393.59;5063051;28;20074;-39
2023/09/23 07:47:48;;;;;;;9.43;4.05;;;;;;;33.98;23.20;100395.47;5044998;28;20092;-40
2023/09/23 07:50:14;;;;;;;12.50;4.40;;;;;;;33.76;23.54;100393.72;5054697;28;20480;-39
2023/09/23 07:52:40;;;;;;;16.38;4.65;;;;;;;34.18;23.38;100395.75;5068384;28;20512;-42
2023/09/23 07:55:06;;;;;;;11.00;4.30;;;;;;;34.43;23.09;100370.13;5070107;28;20044;-39
2023/09/23 07:57:32;;;;;;;8.90;4.10;;;;;;;34.51;22.84;100390.78;5078556;28;20040;-40
2023/09/23 07:59:59;;;;;;;7.55;3.70;;;;;;;34.64;22.23;100385.53;5077237;28;20040;-38
2023/09/23 08:02:25;;;;;;;11.00;4.10;;;;;;;34.38;22.02;100386.91;5074533;28;20033;-40
2023/09/23 08:04:51;;;;;;;9.60;4.00;;;;;;;34.89;21.71;100388.72;5076298;28;20131;-40
2023/09/23 08:07:17;;;;;;;8.63;3.97;;;;;;;35.05;21.42;100393.88;5076149;28;20443;-40
2023/09/23 08:09:42;;;;;;;7.32;4.35;;;;;;;35.40;21.24;100397.53;5065056;28;20432;-40
2023/09/23 08:12:09;;;;;;;9.57;4.03;;;;;;;35.36;21.13;100380.88;5067953;28;20036;-41
2023/09/23 08:14:36;;;;;;;9.20;3.72;;;;;;;35.24;20.51;100385.13;5050060;28;20458;-39
2023/09/23 08:17:02;;;;;;;12.88;3.90;;;;;;;35.25;20.74;100384.94;5063533;28;20177;-40
2023/09/23 08:19:28;;;;;;;8.43;3.97;;;;;;;35.08;20.50;100402.44;5066879;28;20116;-40
2023/09/23 08:21:54;;;;;;;8.32;3.83;;;;;;;34.48;20.69;100364.16;5066267;28;20041;-41
2023/09/23 08:24:21;;;;;;;12.30;3.85;;;;;;;34.11;21.22;100389.41;5074681;28;20040;-39
2023/09/23 08:26:47;;;;;;;12.82;4.50;;;;;;;33.89;21.49;100392.03;5067886;28;20064;-39
2023/09/23 08:29:14;;;;;;;7.57;3.60;;;;;;;33.81;21.74;100356.22;5051655;28;20069;-41
2023/09/23 08:31:40;;;;;;;10.67;3.57;;;;;;;34.73;20.80;100387.09;5065318;28;20288;-39
2023/09/23 08:34:09;;;;;;;8.27;4.05;;;;;;;34.74;20.72;100391.50;5090869;28;20241;-41
2023/09/23 08:36:38;;;;;;;7.28;3.42;;;;;;;34.17;21.10;100367.91;5081017;28;20113;-40
2023/09/23 08:39:07;;;;;;;8.27;3.40;;;;;;;33.67;21.66;100370.50;5075034;28;20040;-40
2023/09/23 08:41:33;;;;;;;8.05;3.75;;;;;;;34.69;21.23;100373.16;5080451;28;20127;-42
2023/09/23 08:44:06;;;;;;;6.30;2.97;;;;;;;34.90;20.66;100372.31;5043888;28;20039;-42
2023/09/23 08:46:32;;;;;;;4.85;3.72;;;;;;;35.48;20.48;100354.97;5066485;28;20101;-41
2023/09/23 08:49:03;;;;;;;9.65;3.67;;;;;;;37.05;18.90;100375.66;5070465;28;20090;-41
2023/09/23 08:51:29;;;;;;;7.55;4.05;;;;;;;36.99;19.05;100371.03;5080225;28;20051;-43
2023/09/23 08:53:55;;;;;;;4.72;3.25;;;;;;;36.67;19.15;100323.03;5070453;28;20040;-42
2023/09/23 08:56:21;;;;;;;6.05;3.40;;;;;;;37.13;18.49;100363.78;5070732;28;20041;-43
2023/09/23 08:58:50;;;;;;;6.07;3.80;;;;;;;37.20;18.77;100359.19;5073809;28;20105;-44
2023/09/23 09:01:19;;;;;;;8.23;4.10;;;;;;;37.34;18.66;100363.56;5071467;28;20040;-39
2023/09/23 09:03:47;;;;;;;10.00;3.35;;;;;;;37.06;18.44;100335.81;5077780;28;20039;-40
2023/09/23 09:06:19;;;;;;;;;;;;;;;37.76;18.06;100362.25;5055441;28;20052;-41
2023/09/23 09:08:45;;;;;;;5.25;3.58;;;;;;;36.77;18.66;100356.84;5090955;28;19977;-41
2023/09/23 09:11:19;;;;;;;9.18;3.70;;;;;;;36.23;19.04;100340.59;5079389;28;20628;-40
2023/09/23 09:13:45;;;;;;;7.20;3.38;;;;;;;35.85;19.41;100352.91;5075102;28;22015;-40
2023/09/23 09:16:11;;;;;;;5.45;3.30;;;;;;;35.72;19.92;100352.84;5069574;28;20127;-41
2023/09/23 09:18:37;;;;;;;6.57;3.58;;;;;;;35.19;19.65;100353.28;5074040;28;20424;-40
2023/09/23 09:21:08;;;;;;;9.27;3.80;;;;;;;35.13;19.71;100347.75;5077493;28;20040;-40
2023/09/23 09:23:36;;;;;;;7.03;3.40;;;;;;;34.70;20.35;100350.50;5073456;28;20556;-40
2023/09/23 09:26:02;;;;;;;5.43;3.42;;;;;;;34.52;20.35;100330.31;5077608;28;20044;-40
2023/09/23 09:28:30;;;;;;;7.30;3.67;;;;;;;34.24;20.42;100346.41;5076738;28;20046;-40
2023/09/23 09:30:57;;;;;;;5.32;3.47;;;;;;;34.63;20.06;100354.13;5078528;28;20380;-40
2023/09/23 09:33:27;;;;;;;9.35;3.40;;;;;;;34.50;20.33;100343.19;5037361;28;20079;-40
2023/09/23 09:35:56;;;;;;;7.35;3.60;;;;;;;34.46;20.17;100337.31;5078478;28;20542;-40
2023/09/23 09:38:24;;;;;;;12.50;4.25;;;;;;;34.14;20.49;100343.13;5069057;28;20072;-40
2023/09/23 09:40:51;;;;;;;13.02;4.35;;;;;;;34.07;20.59;100332.28;5059947;28;20133;-40
2023/09/23 09:43:17;;;;;;;12.90;4.00;;;;;;;34.57;20.33;100344.94;5065504;28;20566;-39
2023/09/23 09:45:44;;;;;;;7.47;4.20;;;;;;;35.26;20.23;100335.25;5060180;28;20037;-40
2023/09/23 09:48:12;;;;;;;4.97;3.90;;;;;;;35.82;19.28;100323.53;5075309;28;20405;-40
2023/09/23 09:50:39;;;;;;;10.25;4.40;;;;;;;36.67;18.60;100364.53;5060335;28;20504;-40
2023/09/23 09:53:06;;;;;;;9.07;4.68;;;;;;;37.57;18.18;100346.88;5041719;28;20411;-40
2023/09/23 09:55:32;;;;;;;8.82;4.18;;;;;;;38.08;17.60;100350.50;5078748;28;20045;-40
2023/09/23 09:58:01;;;;;;;6.38;3.60;;;;;;;38.21;17.11;100327.03;5060078;28;20059;-40
2023/09/23 10:00:27;;;;;;;4.70;3.70;;;;;;;37.42;17.56;100357.94;5060725;28;20047;-40
2023/09/23 10:03:01;;;;;;;7.75;3.33;;;;;;;36.68;18.18;100349.94;5067879;28;20520;-41
2023/09/23 10:06:00;;;;;;;9.43;5.90;;;;;;;36.23;18.42;100345.19;5078248;28;20132;-39
2023/09/23 10:08:35;;;;;;;7.22;2.70;;;;;;;36.11;17.94;100343.03;5065628;28;20044;-40
2023/09/23 10:11:04;;;;;;;12.35;3.53;;;;;;;36.47;18.09;100350.06;5054051;28;20492;-40
2023/09/23 10:13:31;;;;;;;4.53;2.80;;;;;;;37.22;17.44;100351.66;5065756;28;20072;-40
2023/09/23 10:16:12;;;;;;;4.65;3.75;;;;;;;36.67;17.46;100359.13;5079607;28;20036;-40
2023/09/23 10:18:39;;;;;;;7.97;3.72;;;;;;;36.96;17.85;100348.91;5079249;28;20039;-41
2023/09/23 10:21:06;;;;;;;10.35;4.10;;;;;;;37.47;17.30;100369.00;5075282;28;20101;-41
2023/09/23 10:23:39;;;;;;;5.93;4.17;;;;;;;37.34;17.26;100355.41;5064913;28;20047;-40
2023/09/23 10:26:18;;;;;;;9.93;4.18;;;;;;;37.40;17.33;100340.19;5075365;28;20289;-40
2023/09/23 10:29:04;;;;;;;4.32;3.30;;;;;;;36.71;17.90;100327.84;5068733;28;20044;-39
2023/09/23 10:31:32;;;;;;;7.95;3.85;;;;;;;36.63;17.42;100335.34;5068570;28;20092;-39
2023/09/23 10:34:04;;;;;;;6.68;4.07;;;;;;;36.41;18.18;100327.34;5067552;28;20089;-40
2023/09/23 10:36:30;;;;;;;11.50;3.90;;;;;;;37.34;17.31;100329.13;5077434;28;20048;-39
2023/09/23 10:38:57;;;;;;;7.95;4.13;;;;;;;38.83;16.12;100328.97;5072434;28;20043;-40
2023/09/23 10:41:34;;;;;;;4.95;4.55;;;;;;;39.07;15.69;100295.53;5054903;28;20060;-40
2023/09/23 10:44:04;;;;;;;6.25;3.20;;;;;;;37.47;16.74;100335.59;5074368;28;20073;-40
2023/09/23 10:46:31;;;;;;;9.68;3.50;;;;;;;37.73;16.19;100308.41;5076986;28;20467;-40
2023/09/23 10:48:59;;;;;;;7.25;3.45;;;;;;;38.16;15.95;100322.22;5058653;28;20086;-39
2023/09/23 10:51:26;;;;;;;9.68;2.97;;;;;;;37.53;16.22;100321.97;5091245;28;20079;-40
2023/09/23 10:53:52;;;;;;;6.95;3.30;;;;;;;36.89;16.68;100313.69;5068034;28;20077;-40
2023/09/23 10:56:21;;;;;;;7.85;3.72;;;;;;;36.95;16.76;100320.16;5044148;28;20044;-41
2023/09/23 10:58:50;;;;;;;5.72;3.78;;;;;;;37.71;16.40;100335.75;5075871;28;20040;-39
2023/09/23 11:01:20;;;;;;;6.32;3.50;;;;;;;37.44;16.05;100317.84;5075617;28;20105;-39
2023/09/23 11:03:47;;;;;;;5.90;3.20;;;;;;;37.80;16.18;100321.94;5073517;28;20113;-41
2023/09/23 11:06:16;;;;;;;6.20;3.30;;;;;;;37.82;16.04;100309.00;5063520;28;20543;-41
2023/09/23 11:08:43;;;;;;;7.03;3.17;;;;;;;38.05;16.22;100315.59;5075401;28;20052;-40
2023/09/23 11:11:11;;;;;;;8.07;3.55;;;;;;;37.78;16.15;100313.19;5072264;28;20043;-40
2023/09/23 11:13:37;;;;;;;8.80;4.13;;;;;;;37.26;16.55;100342.09;5071525;28;20071;-42
2023/09/23 11:16:10;;;;;;;6.32;3.40;;;;;;;37.68;16.59;100324.50;5053985;28;20481;-41
2023/09/23 11:18:37;;;;;;;12.43;3.45;;;;;;;37.21;16.82;100310.16;5079326;28;20048;-40
2023/09/23 11:21:03;;;;;;;10.02;3.55;;;;;;;36.92;17.43;100326.81;5059713;28;20047;-40
2023/09/23 11:23:29;;;;;;;6.82;3.00;;;;;;;35.95;17.85;100313.63;5060076;28;20044;-39
2023/09/23 11:25:56;;;;;;;7.05;3.83;;;;;;;34.59;18.70;100305.06;5042974;28;20189;-39